createdAt,value
2018-07-09T00:00:43.117Z,98.6
2018-07-09T00:01:50.466Z,99.8
2018-07-09T00:02:58.096Z,99.9
2018-07-09T00:04:05.976Z,99.5
2018-07-09T00:05:13.590Z,97
2018-07-09T00:06:21.563Z,99.9
2018-07-09T00:07:29.539Z,99.7
2018-07-09T00:08:37.435Z,99.6
2018-07-09T00:09:45.319Z,98.9
2018-07-09T00:10:53.204Z,99.4
2018-07-09T00:12:01.091Z,97.9
2018-07-09T00:13:08.984Z,98.9
2018-07-09T00:14:16.874Z,99.5
2018-07-09T00:15:24.766Z,99.4
2018-07-09T00:16:32.651Z,98.4
2018-07-09T00:17:40.550Z,99.2
2018-07-09T00:18:48.435Z,99.9
2018-07-09T00:19:56.049Z,99.9
2018-07-09T00:21:03.939Z,99.9
2018-07-09T00:22:11.816Z,99.9
2018-07-09T00:23:19.711Z,99.9
2018-07-09T00:24:27.608Z,99.9
2018-07-09T00:25:35.498Z,99.9
2018-07-09T00:26:43.386Z,99.9
2018-07-09T00:27:51.273Z,99.9
2018-07-09T00:28:59.157Z,99.9
2018-07-09T00:30:07.054Z,99.9
2018-07-09T00:31:14.939Z,99.9
2018-07-09T00:32:22.865Z,99.9
2018-07-09T00:33:30.801Z,99.9
2018-07-09T00:34:38.687Z,99.9
2018-07-09T00:35:46.582Z,99.9
2018-07-09T00:36:54.470Z,99.9
2018-07-09T00:38:02.097Z,99.9
2018-07-09T00:39:09.985Z,99.9
2018-07-09T00:40:17.599Z,99.9
2018-07-09T00:41:25.496Z,99.9
2018-07-09T00:42:33.381Z,99.9
2018-07-09T00:43:41.270Z,99.9
2018-07-09T00:44:49.156Z,99.9
2018-07-09T00:45:57.039Z,99.9
2018-07-09T00:47:04.933Z,99.9
2018-07-09T00:48:12.829Z,99.9
2018-07-09T00:49:20.713Z,99.9
2018-07-09T00:50:28.610Z,99.9
2018-07-09T00:51:36.493Z,99.9
2018-07-09T00:52:44.381Z,99.9
2018-07-09T00:53:52.000Z,99.9
2018-07-09T00:54:59.882Z,99.9
2018-07-09T00:56:07.769Z,99.9
2018-07-09T00:57:15.656Z,99.9
2018-07-09T00:58:23.541Z,99.9
2018-07-09T00:59:31.428Z,99.9
2018-07-09T01:00:39.313Z,99.9
2018-07-09T01:01:47.212Z,99.9
2018-07-09T01:02:55.096Z,99.9
2018-07-09T01:04:02.718Z,99.9
2018-07-09T01:05:10.605Z,99.9
2018-07-09T01:06:18.488Z,99.9
2018-07-09T01:07:26.378Z,99.9
2018-07-09T01:08:34.271Z,99.9
2018-07-09T01:09:42.159Z,99.9
2018-07-09T01:10:50.050Z,99.9
2018-07-09T01:11:57.953Z,99.9
2018-07-09T01:13:05.841Z,99.9
2018-07-09T01:14:13.732Z,99.9
2018-07-09T01:15:21.617Z,99.9
2018-07-09T01:16:29.511Z,99.9
2018-07-09T01:17:37.393Z,99.9
2018-07-09T01:18:45.274Z,99.9
2018-07-09T01:19:53.161Z,99.9
2018-07-09T01:21:00.771Z,99.9
2018-07-09T01:22:08.663Z,99.9
2018-07-09T01:23:16.548Z,99.9
2018-07-09T01:24:24.446Z,99.9
2018-07-09T01:25:32.334Z,99.9
2018-07-09T01:26:40.222Z,99.9
2018-07-09T01:27:47.830Z,99.9
2018-07-09T01:28:55.440Z,99.9
2018-07-09T01:30:03.322Z,99.9
2018-07-09T01:31:11.215Z,99.9
2018-07-09T01:32:18.837Z,99.9
2018-07-09T01:33:26.748Z,99.9
2018-07-09T01:34:34.679Z,99.9
2018-07-09T01:35:42.575Z,99.9
2018-07-09T01:36:50.462Z,99.9
2018-07-09T01:37:58.358Z,99.9
2018-07-09T01:39:06.246Z,99.9
2018-07-09T01:40:14.130Z,99.9
2018-07-09T01:41:22.020Z,99.9
2018-07-09T01:42:29.897Z,99.9
2018-07-09T01:43:37.782Z,99.9
2018-07-09T01:44:45.670Z,99.9
2018-07-09T01:45:53.291Z,99.9
2018-07-09T01:47:01.183Z,99.9
2018-07-09T01:48:09.070Z,99.9
2018-07-09T01:49:16.955Z,99.9
2018-07-09T01:50:24.839Z,99.9
2018-07-09T01:51:32.721Z,99.9
2018-07-09T01:52:40.605Z,99.9
2018-07-09T01:53:48.499Z,99.9
2018-07-09T01:54:56.606Z,99.9
2018-07-09T01:56:04.489Z,99.9
2018-07-09T01:57:12.380Z,99.9
2018-07-09T01:58:19.989Z,99.9
2018-07-09T01:59:27.877Z,99.9
2018-07-09T02:00:35.763Z,99.9
2018-07-09T02:01:43.649Z,99.9
2018-07-09T02:02:51.535Z,99.9
2018-07-09T02:03:59.422Z,99.9
2018-07-09T02:05:07.353Z,99.9
2018-07-09T02:06:15.255Z,99.9
2018-07-09T02:07:23.142Z,99.9
2018-07-09T02:08:31.027Z,99.9
2018-07-09T02:09:38.642Z,99.9
2018-07-09T02:10:46.528Z,99.9
2018-07-09T02:11:54.415Z,99.9
2018-07-09T02:13:02.305Z,99.9
2018-07-09T02:14:10.192Z,99.9
2018-07-09T02:15:18.077Z,99.9
2018-07-09T02:16:25.990Z,99.9
2018-07-09T02:17:33.877Z,99.9
2018-07-09T02:18:41.764Z,99.9
2018-07-09T02:19:49.378Z,99.9
2018-07-09T02:20:57.266Z,99.9
2018-07-09T02:22:05.153Z,99.9
2018-07-09T02:23:13.061Z,99.9
2018-07-09T02:24:20.950Z,99.9
2018-07-09T02:25:28.833Z,99.9
2018-07-09T02:26:36.715Z,99.9
2018-07-09T02:27:44.600Z,99.9
2018-07-09T02:28:52.513Z,99.9
2018-07-09T02:30:00.402Z,99.9
2018-07-09T02:31:08.290Z,99.9
2018-07-09T02:32:16.176Z,99.9
2018-07-09T02:33:24.066Z,99.9
2018-07-09T02:34:31.954Z,99.9
2018-07-09T02:35:39.840Z,99.9
2018-07-09T02:36:47.729Z,99.9
2018-07-09T02:37:55.628Z,99.9
2018-07-09T02:39:03.281Z,99.9
2018-07-09T02:40:11.171Z,99.9
2018-07-09T02:41:19.064Z,99.9
2018-07-09T02:42:26.943Z,99.9
2018-07-09T02:43:34.835Z,99.9
2018-07-09T02:44:42.449Z,99.9
2018-07-09T02:45:50.332Z,99.9
2018-07-09T02:46:58.222Z,99.9
2018-07-09T02:48:06.109Z,99.9
2018-07-09T02:49:13.818Z,99.9
2018-07-09T02:50:22.133Z,99.9
2018-07-09T02:51:30.017Z,99.9
2018-07-09T02:52:37.897Z,99.9
2018-07-09T02:53:45.785Z,99.9
2018-07-09T02:54:53.670Z,99.9
2018-07-09T02:56:01.553Z,99.9
2018-07-09T02:57:09.436Z,99.9
2018-07-09T02:58:17.331Z,99.9
2018-07-09T02:59:25.234Z,99.9
2018-07-09T03:00:33.111Z,99.9
2018-07-09T03:01:40.995Z,99.9
2018-07-09T03:02:48.881Z,99.9
2018-07-09T03:03:56.768Z,99.9
2018-07-09T03:05:04.648Z,99.9
2018-07-09T03:06:12.533Z,99.9
2018-07-09T03:07:20.418Z,99.9
2018-07-09T03:08:28.306Z,99.9
2018-07-09T03:09:36.201Z,99.9
2018-07-09T03:10:44.080Z,99.9
2018-07-09T03:11:51.978Z,99.9
2018-07-09T03:12:59.867Z,99.9
2018-07-09T03:14:07.756Z,99.9
2018-07-09T03:15:15.373Z,99.9
2018-07-09T03:17:30.855Z,99.9
2018-07-09T03:18:38.742Z,99.9
2018-07-09T03:19:46.347Z,99.9
2018-07-09T03:20:54.235Z,99.9
2018-07-09T03:22:02.115Z,99.9
2018-07-09T03:23:10.030Z,99.9
2018-07-09T03:24:17.912Z,99.9
2018-07-09T03:25:25.801Z,99.9
2018-07-09T03:26:33.683Z,99.9
2018-07-09T03:27:41.571Z,99.9
2018-07-09T03:28:49.463Z,99.9
2018-07-09T03:29:57.353Z,99.9
2018-07-09T03:31:05.236Z,99.9
2018-07-09T03:32:13.121Z,99.9
2018-07-09T03:33:21.009Z,99.9
2018-07-09T03:34:28.892Z,99.9
2018-07-09T03:35:36.780Z,99.9
2018-07-09T03:36:44.665Z,99.9
2018-07-09T03:37:52.553Z,99.9
2018-07-09T03:39:00.442Z,99.9
2018-07-09T03:40:08.328Z,99.9
2018-07-09T03:41:15.934Z,99.9
2018-07-09T03:42:23.822Z,99.9
2018-07-09T03:43:31.715Z,99.9
2018-07-09T03:44:39.326Z,99.9
2018-07-09T03:45:46.948Z,99.9
2018-07-09T03:46:54.837Z,99.9
2018-07-09T03:48:02.721Z,99.9
2018-07-09T03:49:10.604Z,99.9
2018-07-09T03:50:18.506Z,99.9
2018-07-09T03:51:26.389Z,99.9
2018-07-09T03:52:34.280Z,99.9
2018-07-09T03:53:42.168Z,99.9
2018-07-09T03:54:50.051Z,99.9
2018-07-09T03:55:57.657Z,99.9
2018-07-09T03:57:05.544Z,99.9
2018-07-09T03:58:13.431Z,99.9
2018-07-09T03:59:21.318Z,99.9
2018-07-09T04:00:29.205Z,99.9
2018-07-09T04:01:37.090Z,99.9
2018-07-09T04:02:44.984Z,99.9
2018-07-09T04:03:52.869Z,99.9
2018-07-09T04:05:00.754Z,99.9
2018-07-09T04:06:08.640Z,99.9
2018-07-09T04:07:16.533Z,99.9
2018-07-09T04:08:24.422Z,99.9
2018-07-09T04:09:32.047Z,99.9
2018-07-09T04:10:39.655Z,99.9
2018-07-09T04:11:47.539Z,99.9
2018-07-09T04:12:55.427Z,99.9
2018-07-09T04:14:03.318Z,99.9
2018-07-09T04:15:11.214Z,99.9
2018-07-09T04:16:19.096Z,99.9
2018-07-09T04:17:26.982Z,99.9
2018-07-09T04:18:34.593Z,99.9
2018-07-09T04:19:42.479Z,99.9
2018-07-09T04:20:50.425Z,99.9
2018-07-09T04:21:58.462Z,99.9
2018-07-09T04:23:06.360Z,99.9
2018-07-09T04:24:13.975Z,99.9
2018-07-09T04:25:21.862Z,99.9
2018-07-09T04:26:29.753Z,99.9
2018-07-09T04:27:37.637Z,99.9
2018-07-09T04:28:45.531Z,99.9
2018-07-09T04:29:53.419Z,99.9
2018-07-09T04:31:01.305Z,99.9
2018-07-09T04:32:09.198Z,99.9
2018-07-09T04:33:17.082Z,99.9
2018-07-09T04:34:24.694Z,99.9
2018-07-09T04:35:32.583Z,99.9
2018-07-09T04:36:40.475Z,99.9
2018-07-09T04:37:48.402Z,99.9
2018-07-09T04:38:56.607Z,99.9
2018-07-09T04:40:04.497Z,99.9
2018-07-09T04:41:12.119Z,99.9
2018-07-09T04:42:20.003Z,99.9
2018-07-09T04:43:27.895Z,99.9
2018-07-09T04:44:35.781Z,99.9
2018-07-09T04:45:43.665Z,99.1
2018-07-09T04:46:51.553Z,99.5
2018-07-09T04:47:59.439Z,99.9
2018-07-09T04:49:07.332Z,99.2
2018-07-09T04:50:15.221Z,99.7
2018-07-09T04:51:22.842Z,99.5
2018-07-09T04:52:30.741Z,99.9
2018-07-09T04:53:38.651Z,98.8
2018-07-09T04:54:46.538Z,97.9
2018-07-09T04:55:54.425Z,98
2018-07-09T04:57:02.314Z,98.6
2018-07-09T04:58:10.200Z,96.9
2018-07-09T04:59:18.085Z,95.4
2018-07-09T05:00:25.968Z,95.9
2018-07-09T05:01:33.854Z,95.1
2018-07-09T05:02:41.747Z,95.4
2018-07-09T05:03:49.361Z,96
2018-07-09T05:04:57.265Z,94.6
2018-07-09T05:06:05.160Z,94.4
2018-07-09T05:07:13.049Z,95
2018-07-09T05:08:20.935Z,94.5
2018-07-09T05:09:28.867Z,93.9
2018-07-09T05:10:36.813Z,94.4
2018-07-09T05:11:44.706Z,93.2
2018-07-09T05:12:52.625Z,95.7
2018-07-09T05:14:00.558Z,93.8
2018-07-09T05:15:08.201Z,94.1
2018-07-09T05:16:16.087Z,93.1
2018-07-09T05:17:23.978Z,95.1
2018-07-09T05:18:31.892Z,93.2
2018-07-09T05:19:39.778Z,92.6
2018-07-09T05:20:47.685Z,92.3
2018-07-09T05:21:55.575Z,91.6
2018-07-09T05:23:03.469Z,91
2018-07-09T05:24:11.084Z,91.7
2018-07-09T05:25:18.973Z,90
2018-07-09T05:26:26.861Z,90
2018-07-09T05:27:34.746Z,85
2018-07-09T05:28:42.631Z,85.9
2018-07-09T05:29:50.523Z,86.7
2018-07-09T05:30:58.417Z,84.3
2018-07-09T05:32:06.031Z,80
2018-07-09T05:33:13.925Z,83.2
2018-07-09T05:34:21.972Z,81.8
2018-07-09T05:35:29.863Z,81.4
2018-07-09T05:36:37.753Z,78
2018-07-09T05:37:45.643Z,79.7
2018-07-09T05:38:53.532Z,79.8
2018-07-09T05:40:01.468Z,76.8
2018-07-09T05:41:09.623Z,73.8
2018-07-09T05:42:17.242Z,74.1
2018-07-09T05:43:24.860Z,74.4
2018-07-09T05:44:32.751Z,69.4
2018-07-09T05:45:40.642Z,69
2018-07-09T05:46:48.531Z,64.2
2018-07-09T05:47:56.424Z,65.8
2018-07-09T05:49:04.039Z,67.3
2018-07-09T05:50:11.651Z,67.3
2018-07-09T05:51:19.534Z,68
2018-07-09T05:52:27.419Z,61.2
2018-07-09T05:53:35.315Z,62.4
2018-07-09T05:54:43.201Z,60.8
2018-07-09T05:55:51.092Z,59
2018-07-09T05:56:58.701Z,58.1
2018-07-09T05:58:06.591Z,60.9
2018-07-09T05:59:14.481Z,60.1
2018-07-09T06:00:22.369Z,58.9
2018-07-09T06:01:30.258Z,56.1
2018-07-09T06:02:38.157Z,56
2018-07-09T06:03:46.046Z,52.1
2018-07-09T06:04:53.934Z,51.9
2018-07-09T06:06:01.822Z,56.7
2018-07-09T06:07:09.709Z,56.1
2018-07-09T06:08:17.594Z,54.3
2018-07-09T06:09:25.491Z,56.3
2018-07-09T06:10:33.369Z,56.5
2018-07-09T06:11:41.259Z,57.4
2018-07-09T06:12:49.146Z,58.6
2018-07-09T06:13:57.036Z,55.5
2018-07-09T06:15:04.925Z,53.6
2018-07-09T06:16:12.538Z,54.7
2018-07-09T06:17:20.423Z,54.8
2018-07-09T06:18:28.334Z,53.5
2018-07-09T06:19:36.071Z,51.7
2018-07-09T06:20:44.092Z,51.1
2018-07-09T06:21:51.984Z,49.5
2018-07-09T06:22:59.880Z,52.9
2018-07-09T06:24:07.771Z,51.1
2018-07-09T06:25:15.659Z,51.4
2018-07-09T06:26:23.553Z,43.8
2018-07-09T06:27:31.442Z,47.5
2018-07-09T06:28:39.325Z,43
2018-07-09T06:29:47.211Z,42.3
2018-07-09T06:30:55.095Z,46.5
2018-07-09T06:32:02.981Z,44.6
2018-07-09T06:33:10.867Z,38.8
2018-07-09T06:34:18.761Z,41.6
2018-07-09T06:35:26.647Z,36.9
2018-07-09T06:36:34.540Z,33.1
2018-07-09T06:37:42.432Z,34
2018-07-09T06:38:50.320Z,34.3
2018-07-09T06:39:58.214Z,34.1
2018-07-09T06:41:06.101Z,34.1
2018-07-09T06:42:13.989Z,34.7
2018-07-09T06:43:21.877Z,29.2
2018-07-09T06:44:29.771Z,33.4
2018-07-09T06:45:37.662Z,33.7
2018-07-09T06:46:45.548Z,34.4
2018-07-09T06:47:53.434Z,36.4
2018-07-09T06:49:01.328Z,28.1
2018-07-09T06:50:09.289Z,31.2
2018-07-09T06:51:17.152Z,33.2
2018-07-09T06:52:25.039Z,27.2
2018-07-09T06:53:32.925Z,24.9
2018-07-09T06:54:40.821Z,28.8
2018-07-09T06:55:48.738Z,26.7
2018-07-09T06:56:56.747Z,29.1
2018-07-09T06:58:04.636Z,26.1
2018-07-09T06:59:12.529Z,28.4
2018-07-09T07:00:20.423Z,33.1
2018-07-09T07:01:28.316Z,26.9
2018-07-09T07:02:36.223Z,31.8
2018-07-09T07:03:44.338Z,26.2
2018-07-09T07:04:52.232Z,27.8
2018-07-09T07:06:00.117Z,24.8
2018-07-09T07:07:08.021Z,22.2
2018-07-09T07:08:15.905Z,23.8
2018-07-09T07:09:23.516Z,24.2
2018-07-09T07:10:31.406Z,24.3
2018-07-09T07:11:39.295Z,23.1
2018-07-09T07:12:47.181Z,22.2
2018-07-09T07:13:54.822Z,22.6
2018-07-09T07:15:02.711Z,22.8
2018-07-09T07:16:10.606Z,22.5
2018-07-09T07:17:18.234Z,25.1
2018-07-09T07:18:26.134Z,24
2018-07-09T07:19:34.024Z,21.2
2018-07-09T07:20:41.917Z,23.4
2018-07-09T07:21:49.811Z,24.7
2018-07-09T07:22:57.420Z,26.6
2018-07-09T07:24:05.310Z,18.3
2018-07-09T07:25:13.202Z,17.7
2018-07-09T07:26:21.091Z,20.5
2018-07-09T07:27:29.044Z,22.3
2018-07-09T07:28:36.933Z,19.6
2018-07-09T07:29:44.826Z,17.6
2018-07-09T07:30:52.727Z,18.9
2018-07-09T07:32:00.621Z,22.2
2018-07-09T07:33:08.567Z,14
2018-07-09T07:34:16.680Z,17
2018-07-09T07:35:24.576Z,15.6
2018-07-09T07:36:32.193Z,17.2
2018-07-09T07:37:40.083Z,15.3
2018-07-09T07:38:47.977Z,15.6
2018-07-09T07:39:55.857Z,18.8
2018-07-09T07:41:03.207Z,18.6
2018-07-09T07:42:11.099Z,16.5
2018-07-09T07:43:18.726Z,17.6
2018-07-09T07:44:26.615Z,16.5
2018-07-09T07:45:34.242Z,16.4
2018-07-09T07:46:42.133Z,17.6
2018-07-09T07:47:50.035Z,17.7
2018-07-09T07:48:57.915Z,15.4
2018-07-09T07:50:05.843Z,14.6
2018-07-09T07:51:13.846Z,15.4
2018-07-09T07:52:21.739Z,11.9
2018-07-09T07:53:29.623Z,7.2
2018-07-09T07:54:37.528Z,14.5
2018-07-09T07:55:45.427Z,9.6
2018-07-09T07:56:53.459Z,14.5
2018-07-09T07:58:01.346Z,11.7
2018-07-09T07:59:09.235Z,15.6
2018-07-09T08:00:16.859Z,10.5
2018-07-09T08:01:24.478Z,10.7
2018-07-09T08:02:32.370Z,12.3
2018-07-09T08:03:40.258Z,11.6
2018-07-09T08:04:48.154Z,14.5
2018-07-09T08:05:56.047Z,10.7
2018-07-09T08:07:03.941Z,9.9
2018-07-09T08:08:11.835Z,9.2
2018-07-09T08:09:19.755Z,11.7
2018-07-09T08:10:28.065Z,13.5
2018-07-09T08:11:48.556Z,15
2018-07-09T08:13:13.466Z,11.9
2018-07-09T08:14:36.393Z,13.7
2018-07-09T08:15:44.285Z,10.8
2018-07-09T08:16:52.175Z,10.5
2018-07-09T08:18:00.063Z,7.1
2018-07-09T08:19:07.956Z,12.7
2018-07-09T08:20:15.846Z,7.9
2018-07-09T08:21:23.745Z,9.1
2018-07-09T08:22:31.362Z,8.5
2018-07-09T08:23:39.254Z,8.7
2018-07-09T08:24:46.880Z,7.8
2018-07-09T08:25:54.950Z,9.3
2018-07-09T08:27:02.839Z,8
2018-07-09T08:28:10.749Z,7.2
2018-07-09T08:29:18.643Z,10.3
2018-07-09T08:30:26.260Z,5.8
2018-07-09T08:31:34.156Z,7.2
2018-07-09T08:32:42.045Z,2.9
2018-07-09T08:33:49.658Z,2.5
2018-07-09T08:34:57.547Z,3.7
2018-07-09T08:36:05.168Z,2.2
2018-07-09T08:37:12.784Z,6.7
2018-07-09T08:38:20.408Z,4.3
2018-07-09T08:39:28.301Z,6.2
2018-07-09T08:40:36.194Z,6.5
2018-07-09T08:41:44.092Z,3.4
2018-07-09T08:42:51.988Z,3.7
2018-07-09T08:43:59.607Z,6.7
2018-07-09T08:45:07.220Z,7
2018-07-09T08:46:15.112Z,7.2
2018-07-09T08:47:23.060Z,6.2
2018-07-09T08:48:31.088Z,10.7
2018-07-09T08:49:38.987Z,10.1
2018-07-09T08:50:46.886Z,7.6
2018-07-09T08:51:54.773Z,11.1
2018-07-09T08:53:02.666Z,12.5
2018-07-09T08:54:10.557Z,10.1
2018-07-09T08:55:18.543Z,13.9
2018-07-09T08:56:26.715Z,12
2018-07-09T08:57:34.606Z,7.9
2018-07-09T08:58:42.504Z,3.5
2018-07-09T08:59:50.397Z,4.1
2018-07-09T09:00:58.007Z,7.5
2018-07-09T09:02:05.897Z,6.8
2018-07-09T09:03:13.795Z,5.5
2018-07-09T09:04:21.418Z,2.8
2018-07-09T09:05:29.308Z,1
2018-07-09T09:06:37.198Z,2.6
2018-07-09T09:07:45.094Z,1
2018-07-09T09:08:53.207Z,2.4
2018-07-09T09:10:00.899Z,3.8
2018-07-09T09:11:08.842Z,1
2018-07-09T09:12:16.739Z,2.4
2018-07-09T09:13:24.633Z,8.5
2018-07-09T09:14:32.525Z,6.6
2018-07-09T09:15:40.418Z,1
2018-07-09T09:16:48.314Z,1
2018-07-09T09:17:56.206Z,1
2018-07-09T09:19:04.102Z,1
2018-07-09T09:20:11.996Z,1
2018-07-09T09:21:19.891Z,1.9
2018-07-09T09:22:27.510Z,2
2018-07-09T09:23:35.406Z,8.8
2018-07-09T09:24:43.296Z,1
2018-07-09T09:25:51.191Z,3.7
2018-07-09T09:26:59.085Z,3.4
2018-07-09T09:28:06.976Z,1
2018-07-09T09:29:14.598Z,1
2018-07-09T09:30:22.494Z,1
2018-07-09T09:31:30.132Z,1
2018-07-09T09:32:38.309Z,1
2018-07-09T09:33:46.202Z,1
2018-07-09T09:34:53.829Z,1
2018-07-09T09:36:01.442Z,1
2018-07-09T09:37:09.336Z,1
2018-07-09T09:38:17.229Z,2.4
2018-07-09T09:39:25.162Z,1
2018-07-09T09:40:33.040Z,1.8
2018-07-09T09:41:40.929Z,1.2
2018-07-09T09:42:48.824Z,1
2018-07-09T09:43:56.721Z,1
2018-07-09T09:45:04.613Z,1
2018-07-09T09:46:12.512Z,1
2018-07-09T09:47:20.402Z,1
2018-07-09T09:48:28.292Z,1
2018-07-09T09:49:36.187Z,1
2018-07-09T09:50:44.085Z,1
2018-07-09T09:51:51.978Z,1
2018-07-09T09:52:59.598Z,1
2018-07-09T09:54:07.493Z,1
2018-07-09T09:55:15.385Z,2.1
2018-07-09T09:56:23.279Z,1
2018-07-09T09:57:31.180Z,1
2018-07-09T09:58:39.092Z,1
2018-07-09T09:59:46.975Z,1
2018-07-09T10:00:54.881Z,1
2018-07-09T10:02:02.500Z,1
2018-07-09T10:03:10.400Z,2
2018-07-09T10:04:18.296Z,1
2018-07-09T10:05:25.915Z,1
2018-07-09T10:06:33.848Z,1
2018-07-09T10:07:41.829Z,1
2018-07-09T10:08:49.948Z,1
2018-07-09T10:09:59.456Z,1
2018-07-09T10:11:08.509Z,1
2018-07-09T10:12:16.403Z,1
2018-07-09T10:13:24.298Z,1
2018-07-09T10:14:32.191Z,1.1
2018-07-09T10:15:40.095Z,1
2018-07-09T10:16:47.756Z,1
2018-07-09T10:17:55.715Z,1
2018-07-09T10:19:03.611Z,1
2018-07-09T10:20:11.501Z,1
2018-07-09T10:21:19.396Z,1
2018-07-09T10:22:27.309Z,1
2018-07-09T10:23:35.285Z,1
2018-07-09T10:24:43.529Z,1
2018-07-09T10:25:51.432Z,1
2018-07-09T10:26:59.329Z,1
2018-07-09T10:28:07.221Z,1
2018-07-09T10:29:15.127Z,1
2018-07-09T10:30:23.029Z,1
2018-07-09T10:31:30.987Z,1
2018-07-09T10:32:38.882Z,1
2018-07-09T10:33:46.774Z,1
2018-07-09T10:34:54.665Z,1
2018-07-09T10:36:02.556Z,1
2018-07-09T10:37:10.450Z,1
2018-07-09T10:38:18.346Z,1
2018-07-09T10:39:26.251Z,1
2018-07-09T10:40:34.243Z,1
2018-07-09T10:41:42.138Z,1
2018-07-09T10:42:50.039Z,1
2018-07-09T10:43:57.668Z,1
2018-07-09T10:45:05.563Z,1
2018-07-09T10:46:13.184Z,1
2018-07-09T10:47:21.080Z,1
2018-07-09T10:48:28.973Z,1
2018-07-09T10:49:36.866Z,1
2018-07-09T10:50:44.765Z,1
2018-07-09T10:51:52.660Z,1
2018-07-09T10:53:00.552Z,1
2018-07-09T10:54:08.453Z,1
2018-07-09T10:55:16.399Z,1
2018-07-09T10:56:24.585Z,1
2018-07-09T10:57:32.202Z,1
2018-07-09T10:58:39.828Z,1
2018-07-09T10:59:47.718Z,1
2018-07-09T11:00:55.614Z,1
2018-07-09T11:02:03.504Z,1
2018-07-09T11:03:11.398Z,1
2018-07-09T11:04:19.295Z,1
2018-07-09T11:05:27.193Z,1
2018-07-09T11:06:34.813Z,1
2018-07-09T11:07:42.719Z,1
2018-07-09T11:08:50.611Z,1
2018-07-09T11:09:58.506Z,1
2018-07-09T11:11:06.403Z,1
2018-07-09T11:12:14.298Z,1
2018-07-09T11:13:22.195Z,1
2018-07-09T11:14:30.091Z,1
2018-07-09T11:15:37.989Z,1
2018-07-09T11:16:45.612Z,1
2018-07-09T11:17:53.510Z,1
2018-07-09T11:19:01.432Z,1
2018-07-09T11:20:09.328Z,1
2018-07-09T11:21:16.945Z,1
2018-07-09T11:22:24.869Z,1
2018-07-09T11:23:32.769Z,1
2018-07-09T11:24:40.666Z,1
2018-07-09T11:25:48.281Z,1
2018-07-09T11:26:56.176Z,1
2018-07-09T11:28:04.074Z,1
2018-07-09T11:29:12.032Z,1
2018-07-09T11:30:20.041Z,1
2018-07-09T11:31:27.933Z,1
2018-07-09T11:32:35.568Z,1
2018-07-09T11:33:43.463Z,1
2018-07-09T11:34:51.356Z,1
2018-07-09T11:35:59.273Z,1
2018-07-09T11:37:07.231Z,1
2018-07-09T11:38:15.130Z,1
2018-07-09T11:39:23.030Z,1
2018-07-09T11:40:30.926Z,1
2018-07-09T11:41:38.819Z,1
2018-07-09T11:42:46.434Z,1
2018-07-09T11:43:54.330Z,1
2018-07-09T11:45:02.228Z,1
2018-07-09T11:46:10.155Z,1
2018-07-09T11:47:18.045Z,1
2018-07-09T11:48:25.968Z,1
2018-07-09T11:49:33.851Z,1
2018-07-09T11:50:41.778Z,1
2018-07-09T11:51:49.683Z,1
2018-07-09T11:52:57.586Z,1
2018-07-09T11:54:05.714Z,1
2018-07-09T11:55:13.611Z,1
2018-07-09T11:56:21.507Z,1
2018-07-09T11:57:29.411Z,1
2018-07-09T11:58:37.328Z,1
2018-07-09T11:59:45.434Z,1
2018-07-09T12:00:53.330Z,1
2018-07-09T12:02:00.992Z,1
2018-07-09T12:03:08.968Z,1
2018-07-09T12:04:16.867Z,1
2018-07-09T12:05:24.761Z,1
2018-07-09T12:06:32.667Z,1
2018-07-09T12:07:40.561Z,1
2018-07-09T12:08:48.460Z,1
2018-07-09T12:09:56.350Z,1
2018-07-09T12:11:04.248Z,1
2018-07-09T12:12:12.143Z,1
2018-07-09T12:13:20.042Z,1
2018-07-09T12:14:27.691Z,1
2018-07-09T12:15:35.319Z,1
2018-07-09T12:16:43.217Z,1
2018-07-09T12:17:51.114Z,1
2018-07-09T12:18:59.008Z,1
2018-07-09T12:20:06.918Z,1
2018-07-09T12:21:14.828Z,1
2018-07-09T12:22:22.489Z,1
2018-07-09T12:23:30.389Z,1
2018-07-09T12:24:38.279Z,1
2018-07-09T12:25:46.176Z,1
2018-07-09T12:26:54.072Z,1
2018-07-09T12:28:01.976Z,1
2018-07-09T12:29:10.085Z,1
2018-07-09T12:30:18.693Z,1
2018-07-09T12:31:26.601Z,1
2018-07-09T12:32:34.228Z,1
2018-07-09T22:00:05.638Z,60.2
2018-07-09T22:01:12.941Z,60.6
2018-07-09T22:02:20.620Z,63.4
2018-07-09T22:03:27.559Z,64.4
2018-07-09T22:04:34.771Z,70.1
2018-07-09T22:05:41.985Z,65.3
2018-07-09T22:06:49.198Z,65
2018-07-09T22:07:56.409Z,68.6
2018-07-09T22:09:03.620Z,67.3
2018-07-09T22:10:10.830Z,68.4
2018-07-09T22:11:18.050Z,69.2
2018-07-09T22:12:25.264Z,64.7
2018-07-09T22:13:32.475Z,65.4
2018-07-09T22:14:39.683Z,68.2
2018-07-09T22:15:46.631Z,71.8
2018-07-09T22:16:53.851Z,71.8
2018-07-09T22:18:01.069Z,70.8
2018-07-09T22:19:08.282Z,68
2018-07-09T22:20:15.505Z,67.7
2018-07-09T22:21:22.718Z,63.6
2018-07-09T22:22:29.938Z,66.4
2018-07-09T22:23:37.156Z,68.2
2018-07-09T22:24:44.417Z,67.7
2018-07-09T22:25:51.712Z,69.9
2018-07-09T22:26:58.926Z,69.4
2018-07-09T22:28:06.141Z,69.8
2018-07-09T22:29:13.350Z,71.3
2018-07-09T22:30:20.561Z,71.6
2018-07-09T22:31:27.790Z,74.1
2018-07-09T22:32:34.738Z,73.8
2018-07-09T22:33:41.948Z,75.2
2018-07-09T22:34:48.888Z,76.6
2018-07-09T22:35:56.102Z,78.3
2018-07-09T22:37:03.036Z,87.7
2018-07-09T22:38:10.251Z,83.9
2018-07-09T22:39:17.469Z,81.5
2018-07-09T22:40:24.411Z,78.9
2018-07-09T22:41:31.620Z,76.2
2018-07-09T22:42:38.830Z,76.2
2018-07-09T22:43:46.043Z,80.2
2018-07-09T22:44:53.258Z,75.6
2018-07-09T22:46:00.483Z,80.8
2018-07-09T22:47:07.692Z,84.1
2018-07-09T22:48:14.904Z,80.7
2018-07-09T22:49:22.126Z,81.4
2018-07-09T22:50:29.345Z,81
2018-07-09T22:51:36.559Z,80.9
2018-07-09T22:52:43.771Z,80.6
2018-07-09T22:53:50.996Z,90.1
2018-07-09T22:54:58.214Z,90.7
2018-07-09T22:56:05.422Z,90.7
2018-07-09T22:57:12.357Z,90.2
2018-07-09T22:58:19.564Z,92.4
2018-07-09T22:59:26.776Z,91.1
2018-07-09T23:00:33.985Z,91.5
2018-07-09T23:01:40.932Z,89.9
2018-07-09T23:02:47.878Z,91.7
2018-07-09T23:03:54.819Z,92
2018-07-09T23:05:02.046Z,90.1
2018-07-09T23:06:08.985Z,91
2018-07-09T23:07:16.218Z,87.4
2018-07-09T23:08:23.428Z,91.4
2018-07-09T23:09:30.640Z,92.2
2018-07-09T23:10:37.855Z,92.7
2018-07-09T23:11:45.065Z,90.1
2018-07-09T23:12:52.279Z,91.5
2018-07-09T23:13:59.508Z,90.1
2018-07-09T23:15:06.714Z,90.9
2018-07-09T23:16:13.921Z,90.2
2018-07-09T23:17:21.346Z,91.4
2018-07-09T23:18:28.558Z,92
2018-07-09T23:19:35.771Z,87
2018-07-09T23:20:42.980Z,94.5
2018-07-09T23:21:50.188Z,90.7
2018-07-09T23:22:57.407Z,92.5
2018-07-09T23:24:04.662Z,93.2
2018-07-09T23:25:11.830Z,94.1
2018-07-09T23:26:18.769Z,94.3
2018-07-09T23:27:25.713Z,91.6
2018-07-09T23:28:32.920Z,91.5
2018-07-09T23:29:40.143Z,91.9
2018-07-09T23:30:47.360Z,90.6
2018-07-09T23:31:54.575Z,92.5
2018-07-09T23:33:01.782Z,94.1
2018-07-09T23:34:08.726Z,95.8
2018-07-09T23:35:15.666Z,96.5
2018-07-09T23:36:22.600Z,96.3
2018-07-09T23:37:29.816Z,95.3
2018-07-09T23:38:37.028Z,96.5
2018-07-09T23:39:44.245Z,95.1
2018-07-09T23:40:51.456Z,96.8
2018-07-09T23:41:58.692Z,94.1
2018-07-09T23:43:05.946Z,94.9
2018-07-09T23:44:13.187Z,95.6
2018-07-09T23:45:20.403Z,99
2018-07-09T23:46:27.618Z,97.3
2018-07-09T23:47:34.830Z,96.6
2018-07-09T23:48:42.041Z,94.5
2018-07-09T23:49:49.255Z,94.7
2018-07-09T23:50:56.243Z,94.9
2018-07-09T23:52:03.491Z,94.5
2018-07-09T23:53:10.706Z,96.5
2018-07-09T23:54:17.915Z,97.6
2018-07-09T23:55:25.126Z,98.1
2018-07-09T23:56:32.344Z,99.8
2018-07-09T23:57:39.557Z,99.9
2018-07-09T23:58:46.771Z,98.6
2018-07-09T23:59:53.986Z,99.9
